South Pekin, IL (61564)

7:04 AM CST on February 08, 2016 (GMT -0600)
Green Acres | | Change Station
CLOSE
Current Station
Personal Weather Station
Location: Green Valley, IL
Elevation: 516 ft
Nearby Weather Stations
Active Advisory: Special Statement

Elev 516 ft 40.48 °N, 89.66 °W | Updated 2 minutes ago

Overcast
Overcast
26.6 °F
Feels Like 17 °F
N
11.0
Wind Variable Wind from WNW
Gusts 27.0 mph

Today
High -- | Low -- °F
--% Chance of Precip.
Yesterday
High -- | Low -- °F
Precip. -- in
Pressure 29.77 in
Visibility 4.0 miles
Clouds Scattered Clouds 4100 ft
Overcast 5000 ft
Windchill 17 °F
Dew Point 21 °F
Humidity 78%
Rainfall 0.00 in
Snow Depth Not available.
7:01 AM 5:24 PM
Waning Crescent, 0% visible
METAR KPIA 081254Z 29016G23KT 4SM -SN SCT041 OVC050 M04/M09 A2975 RMK AO2 PK WND 30026/1244 SNB45 SLP081 P0000 T10441089 $
Pressure 29.77 in
Visibility 4.0 miles
Clouds Scattered Clouds 4100 ft
Overcast 5000 ft
Windchill 17 °F
Dew Point 21 °F
Humidity 78%
Rainfall 0.00 in
Snow Depth Not available.
7:01 AM 5:24 PM
Waning Crescent, 0% visible
METAR KPIA 081254Z 29016G23KT 4SM -SN SCT041 OVC050 M04/M09 A2975 RMK AO2 PK WND 30026/1244 SNB45 SLP081 P0000 T10441089 $

10-Day Weather Forecast

Almanac

Astronomy

Feb. 08, 2016 Rise Set
Actual Time
Civil Twilight
Nautical Twilight
Astronomical Twilight
Moon
Length of Visible Light
Length of Day
Tomorrow will be .
, % of the Moon is Illuminated

Today's Extremes

State Highs State Lows

Community

WunderPhotos

Upload Photos

1,891,434 photos uploaded!

WunderBlog® & News

Nearby

Air Quality

  Air Quality AQ Index Pollutant
Not available.

Snow Depth

Station Depth Elevation

Earthquake Activity

City Distance Mag. Time & Date
Minimum magnitude displayed is 2.5.

Coastal Water Temperatures

Place Temperature

Stations

Nearby Weather Stations

Station Location Temp. Windchill Dew Point Humidity Wind Precip. Elev Updated Type
                   

Watches & Warnings

Special Statement
Issued: 6:25 AM CST Feb. 8, 2016 – National Weather Service

Scattered snow showers developing over central Illinois this
morning will create areas of minor accumulations on roadways. Some
Road surfaces will be very slick for the morning commute.


Onton


625 am CST Mon Feb 8 2016

Scattered snow showers developing over central Illinois this
morning will create areas of minor accumulations on roadways. Some
Road surfaces will be very slick for the morning commute.


Onton